Portada
METAR-TAF:

METAR-TAF

Aeroports :

Berlin, Nova Hampshire, Estats Units d'Amèrica

latitud: 44-34-34N, longitud: 071-10-43W, altitud: 353 m

Observació

L'informe es va fer fa 40 minuts, a les 21:52 UTC
Vent 6 kt amb direcció variable
Temperatura -5°C
Humitat 42%
Pressió 1025 hPa
Visibilitat: 16.1 km
Cel clar

METAR: KBML 172152Z AUTO VRB06KT 10SM CLR M05/M16 A3027 RMK AO2 SLP270 T10501161

Hora: 17:32 (22:32 UTC)


TAF: manca

Observacions i pronòstics meteorològics de més de 4000 aeroports (METAR i TAF).

Les estacions disponibles són els punts grocs i vermells al mapa.

Posi el ratolí al punt desitjat per veure el nom de l'estació.

Feu clic per veure les observacions i els pronòstics meteorològics.

Per canviar el mapa: feu clic els botons verds amb una creu de color negre per apropar; al botó verd amb un guió per allunyar la imatge; o en les fletxes verdes per a mapes adjacents.


METAR-TAF: